createdAt,value
2023-08-09T00:01:56.197Z,2.13
2023-08-09T00:04:24.133Z,3.10
2023-08-09T00:06:51.235Z,3.00
2023-08-09T00:09:18.449Z,2.75
2023-08-09T00:11:45.583Z,3.03
2023-08-09T00:14:12.730Z,2.90
2023-08-09T00:16:41.774Z,3.22
2023-08-09T00:19:10.274Z,3.00
2023-08-09T00:21:37.680Z,3.05
2023-08-09T00:24:07.486Z,2.95
2023-08-09T00:26:34.597Z,3.25
2023-08-09T00:29:01.712Z,3.13
2023-08-09T00:31:29.924Z,3.08
2023-08-09T00:33:59.212Z,3.20
2023-08-09T00:36:28.147Z,3.38
2023-08-09T00:38:55.342Z,3.03
2023-08-09T00:41:22.473Z,2.95
2023-08-09T00:43:49.640Z,3.10
2023-08-09T00:46:17.008Z,3.20
2023-08-09T00:48:44.245Z,3.17
2023-08-09T00:51:11.440Z,2.60
2023-08-09T00:53:39.567Z,3.45
2023-08-09T00:56:07.013Z,3.47
2023-08-09T00:58:34.172Z,2.78
2023-08-09T01:01:01.312Z,2.92
2023-08-09T01:03:28.611Z,3.45
2023-08-09T01:06:14.579Z,3.08
2023-08-09T01:08:47.060Z,3.20
2023-08-09T01:11:22.416Z,2.80
2023-08-09T01:13:53.115Z,3.50
2023-08-09T01:16:22.229Z,3.00
2023-08-09T01:18:51.653Z,2.90
2023-08-09T01:21:20.668Z,3.17
2023-08-09T01:23:49.474Z,2.75
2023-08-09T01:26:16.645Z,3.13
2023-08-09T01:28:43.851Z,3.35
2023-08-09T01:31:11.990Z,3.30
2023-08-09T01:33:39.286Z,3.28
2023-08-09T01:36:12.500Z,3.83
2023-08-09T01:38:48.756Z,3.28
2023-08-09T01:41:16.355Z,3.08
2023-08-09T01:43:45.007Z,3.00
2023-08-09T01:46:24.681Z,3.35
2023-08-09T01:48:52.080Z,3.10
2023-08-09T01:51:19.283Z,2.92
2023-08-09T01:53:46.400Z,2.53
2023-08-09T01:56:13.578Z,3.10
2023-08-09T01:58:40.718Z,3.25
2023-08-09T02:01:09.556Z,3.20
2023-08-09T02:03:36.847Z,3.90
2023-08-09T02:06:04.026Z,3.08
2023-08-09T02:08:31.133Z,3.30
2023-08-09T02:10:58.262Z,3.00
2023-08-09T02:13:25.456Z,3.30
2023-08-09T02:15:52.638Z,3.53
2023-08-09T02:18:20.306Z,3.83
2023-08-09T02:20:47.597Z,3.20
2023-08-09T02:23:14.720Z,3.47
2023-08-09T02:25:41.946Z,3.22
2023-08-09T02:28:09.588Z,3.63
2023-08-09T02:30:36.783Z,3.63
2023-08-09T02:33:04.194Z,3.30
2023-08-09T02:35:47.531Z,3.17
2023-08-09T02:38:16.846Z,3.38
2023-08-09T02:40:43.973Z,3.20
2023-08-09T02:43:12.331Z,3.42
2023-08-09T02:45:40.073Z,3.67
2023-08-09T02:48:07.289Z,4.60
2023-08-09T02:50:34.502Z,3.70
2023-08-09T02:53:04.517Z,2.83
2023-08-09T02:55:32.691Z,3.10
2023-08-09T02:58:01.467Z,3.47
2023-08-09T03:00:28.625Z,4.07
2023-08-09T03:02:55.957Z,3.22
2023-08-09T03:05:23.207Z,3.63
2023-08-09T03:07:50.409Z,3.53
2023-08-09T03:10:17.828Z,3.75
2023-08-09T03:12:45.488Z,3.00
2023-08-09T03:15:13.499Z,3.40
2023-08-09T03:17:40.719Z,3.88
2023-08-09T03:20:14.282Z,4.32
2023-08-09T03:22:49.843Z,3.55
2023-08-09T03:25:17.917Z,3.88
2023-08-09T03:27:48.328Z,3.67
2023-08-09T03:30:17.358Z,3.78
2023-08-09T03:32:44.683Z,3.80
2023-08-09T03:35:12.026Z,3.63
2023-08-09T03:37:39.546Z,4.28
2023-08-09T03:40:09.542Z,3.83
2023-08-09T03:42:36.747Z,3.97
2023-08-09T03:45:04.115Z,4.68
2023-08-09T03:47:31.569Z,3.25
2023-08-09T03:49:58.797Z,3.30
2023-08-09T03:52:26.375Z,4.05
2023-08-09T03:54:55.062Z,3.60
2023-08-09T03:57:22.784Z,3.28
2023-08-09T03:59:53.089Z,3.40
2023-08-09T04:02:20.308Z,4.18
2023-08-09T04:04:48.408Z,4.47
2023-08-09T04:07:15.897Z,4.03
2023-08-09T04:09:43.012Z,3.72
2023-08-09T04:12:10.196Z,3.78
2023-08-09T04:14:37.306Z,4.07
2023-08-09T04:17:07.374Z,3.88
2023-08-09T04:19:34.515Z,4.25
2023-08-09T04:22:02.093Z,3.90
2023-08-09T04:24:29.274Z,4.57
2023-08-09T04:26:56.408Z,3.47
2023-08-09T04:29:23.536Z,4.10
2023-08-09T04:31:50.876Z,4.53
2023-08-09T04:34:18.050Z,3.63
2023-08-09T04:36:45.201Z,3.70
2023-08-09T04:39:12.704Z,4.35
2023-08-09T04:41:41.661Z,3.80
2023-08-09T04:44:08.783Z,4.22
2023-08-09T04:46:36.548Z,3.47
2023-08-09T04:49:04.415Z,3.20
2023-08-09T04:51:31.523Z,3.72
2023-08-09T04:53:58.701Z,4.65
2023-08-09T04:56:25.912Z,4.70
2023-08-09T04:58:53.098Z,3.90
2023-08-09T05:01:20.403Z,4.00
2023-08-09T05:03:47.546Z,4.53
2023-08-09T05:06:14.654Z,3.58
2023-08-09T05:08:41.802Z,4.07
2023-08-09T05:11:08.915Z,4.20
2023-08-09T05:13:36.360Z,3.60
2023-08-09T05:16:03.634Z,4.50
2023-08-09T05:18:30.803Z,5.43
2023-08-09T05:20:59.177Z,4.20
2023-08-09T05:23:26.297Z,4.82
2023-08-09T05:25:53.486Z,4.40
2023-08-09T05:28:20.609Z,3.90
2023-08-09T05:30:47.883Z,4.05
2023-08-09T05:33:15.043Z,4.47
2023-08-09T05:35:42.156Z,4.10
2023-08-09T05:38:09.420Z,4.00
2023-08-09T05:40:36.534Z,4.22
2023-08-09T05:43:03.808Z,4.50
2023-08-09T05:45:30.997Z,4.75
2023-08-09T05:47:58.179Z,3.63
2023-08-09T05:50:26.066Z,3.85
2023-08-09T05:52:53.197Z,4.68
2023-08-09T05:55:20.375Z,4.35
2023-08-09T05:57:47.513Z,4.07
2023-08-09T06:00:16.903Z,4.53
2023-08-09T06:02:45.688Z,4.70
2023-08-09T06:05:23.056Z,4.88
2023-08-09T06:07:50.250Z,4.70
2023-08-09T06:10:17.456Z,4.57
2023-08-09T06:12:44.567Z,4.80
2023-08-09T06:15:12.392Z,4.95
2023-08-09T06:17:39.724Z,4.60
2023-08-09T06:20:07.203Z,4.78
2023-08-09T06:22:34.338Z,4.55
2023-08-09T06:25:01.532Z,3.70
2023-08-09T06:27:28.694Z,4.25
2023-08-09T06:29:55.826Z,4.38
2023-08-09T06:32:23.363Z,4.25
2023-08-09T06:34:50.625Z,4.10
2023-08-09T06:37:17.767Z,3.15
2023-08-09T06:39:45.317Z,4.72
2023-08-09T06:42:13.344Z,3.78
2023-08-09T06:44:40.753Z,4.63
2023-08-09T06:47:07.890Z,4.25
2023-08-09T06:49:35.484Z,3.95
2023-08-09T06:52:02.896Z,4.15
2023-08-09T06:54:30.215Z,4.78
2023-08-09T06:56:57.368Z,3.90
2023-08-09T06:59:24.970Z,4.00
2023-08-09T07:01:52.243Z,4.38
2023-08-09T07:04:19.811Z,4.10
2023-08-09T07:06:47.183Z,4.10
2023-08-09T07:09:15.477Z,3.88
2023-08-09T07:11:42.585Z,4.32
2023-08-09T07:14:09.703Z,4.10
2023-08-09T07:16:36.937Z,3.85
2023-08-09T07:19:06.071Z,4.10
2023-08-09T07:21:33.257Z,3.33
2023-08-09T07:24:00.371Z,3.80
2023-08-09T07:26:27.830Z,4.63
2023-08-09T07:28:55.201Z,3.75
2023-08-09T07:31:24.747Z,4.20
2023-08-09T07:33:52.318Z,4.18
2023-08-09T07:36:19.846Z,3.80
2023-08-09T07:38:47.050Z,4.05
2023-08-09T07:41:14.251Z,3.65
2023-08-09T07:43:41.401Z,3.60
2023-08-09T07:46:08.558Z,3.42
2023-08-09T07:48:35.810Z,4.13
2023-08-09T07:51:03.020Z,3.38
2023-08-09T07:53:30.316Z,4.13
2023-08-09T07:55:57.494Z,3.80
2023-08-09T07:58:24.694Z,4.57
2023-08-09T08:00:52.023Z,5.88
2023-08-09T08:03:19.249Z,4.63
2023-08-09T08:05:48.961Z,4.50
2023-08-09T08:08:18.604Z,4.10
2023-08-09T08:10:45.952Z,4.25
2023-08-09T08:13:13.481Z,3.88
2023-08-09T08:15:41.011Z,3.25
2023-08-09T08:18:09.058Z,3.72
2023-08-09T08:20:36.474Z,4.75
2023-08-09T08:23:05.174Z,4.05
2023-08-09T08:25:32.874Z,4.43
2023-08-09T08:27:59.994Z,4.28
2023-08-09T08:30:27.142Z,4.00
2023-08-09T08:32:54.293Z,3.92
2023-08-09T08:35:22.106Z,4.40
2023-08-09T08:37:50.795Z,4.43
2023-08-09T08:40:20.182Z,4.63
2023-08-09T08:42:51.162Z,4.88
2023-08-09T08:45:20.517Z,4.15
2023-08-09T08:47:48.819Z,4.85
2023-08-09T08:50:17.600Z,4.60
2023-08-09T08:52:47.372Z,4.57
2023-08-09T08:55:15.288Z,4.57
2023-08-09T08:57:44.234Z,3.40
2023-08-09T09:00:27.840Z,2.60
2023-08-09T09:02:57.869Z,3.40
2023-08-09T09:05:25.239Z,3.45
2023-08-09T09:07:53.476Z,3.63
2023-08-09T09:10:21.685Z,3.03
2023-08-09T09:12:57.318Z,3.42
2023-08-09T09:15:28.777Z,3.65
2023-08-09T09:17:56.361Z,2.88
2023-08-09T09:20:28.734Z,3.42
2023-08-09T09:22:56.273Z,3.17
2023-08-09T09:25:24.509Z,3.38
2023-08-09T09:27:56.679Z,3.47
2023-08-09T09:30:30.509Z,3.78
2023-08-09T09:33:00.399Z,4.20
2023-08-09T09:35:29.451Z,2.97
2023-08-09T09:37:59.898Z,3.67
2023-08-09T09:40:32.411Z,3.90
2023-08-09T09:43:00.394Z,4.07
2023-08-09T09:45:29.310Z,4.25
2023-08-09T09:48:00.411Z,2.90
2023-08-09T09:50:29.445Z,3.38
2023-08-09T09:52:56.714Z,2.92
2023-08-09T09:55:27.295Z,4.03
2023-08-09T09:57:56.133Z,3.90
2023-08-09T10:00:23.978Z,4.20
2023-08-09T10:02:52.993Z,3.80
2023-08-09T10:05:23.569Z,4.35
2023-08-09T10:07:53.835Z,4.82
2023-08-09T10:10:22.048Z,4.68
2023-08-09T10:12:53.931Z,4.05
2023-08-09T10:15:28.538Z,3.88
2023-08-09T10:18:05.227Z,3.13
2023-08-09T10:20:34.784Z,3.78
2023-08-09T10:23:02.431Z,3.30
2023-08-09T10:25:44.573Z,3.70
2023-08-09T10:28:12.063Z,2.80
2023-08-09T10:30:51.116Z,3.17
2023-08-09T10:33:20.187Z,5.35
2023-08-09T10:35:49.659Z,3.67
2023-08-09T10:38:19.808Z,3.55
2023-08-09T10:40:54.223Z,3.45
2023-08-09T10:43:24.503Z,4.10
2023-08-09T10:45:54.700Z,3.88
2023-08-09T10:48:28.858Z,4.65
2023-08-09T10:51:02.137Z,4.38
2023-08-09T10:53:29.281Z,4.50
2023-08-09T10:55:58.276Z,4.30
2023-08-09T10:58:31.799Z,4.43
2023-08-09T11:00:59.107Z,4.80
2023-08-09T11:03:26.365Z,4.97
2023-08-09T11:05:53.692Z,3.42
2023-08-09T11:08:22.021Z,4.35
2023-08-09T11:10:49.475Z,4.70
2023-08-09T11:13:19.813Z,4.53
2023-08-09T11:15:49.140Z,4.00
2023-08-09T11:18:17.203Z,4.38
2023-08-09T11:20:45.945Z,4.35
2023-08-09T11:23:13.870Z,4.05
2023-08-09T11:25:41.464Z,4.63
2023-08-09T11:28:13.378Z,4.95
2023-08-09T11:30:40.700Z,3.72
2023-08-09T11:33:10.129Z,4.07
2023-08-09T11:35:44.590Z,3.80
2023-08-09T11:38:15.205Z,3.95
2023-08-09T11:40:47.608Z,4.25
2023-08-09T11:43:16.888Z,3.97
2023-08-09T11:45:56.105Z,4.50
2023-08-09T11:48:30.861Z,4.78
2023-08-09T11:51:06.994Z,3.95
2023-08-09T11:53:35.672Z,3.65
2023-08-09T11:56:07.869Z,3.80
2023-08-09T11:58:37.041Z,3.72
2023-08-09T12:01:19.700Z,4.13
2023-08-09T12:03:49.337Z,4.05
2023-08-09T12:06:18.911Z,4.53
2023-08-09T12:08:46.179Z,4.85
2023-08-09T12:11:17.282Z,4.13
2023-08-09T12:13:44.514Z,4.55
2023-08-09T12:16:11.780Z,4.32
2023-08-09T12:18:39.046Z,3.92
2023-08-09T12:21:08.163Z,4.13
2023-08-09T12:23:37.717Z,3.63
2023-08-09T12:26:05.555Z,3.20
2023-08-09T12:28:32.873Z,3.65
2023-08-09T12:31:00.154Z,3.60
2023-08-09T12:33:28.331Z,3.45
2023-08-09T12:35:55.532Z,3.50
2023-08-09T12:38:22.679Z,3.78
2023-08-09T12:40:49.894Z,3.53
2023-08-09T12:43:17.101Z,3.13
2023-08-09T12:45:44.571Z,3.58
2023-08-09T12:48:11.900Z,3.72
2023-08-09T12:50:39.804Z,4.13
2023-08-09T12:53:08.866Z,3.38
2023-08-09T12:55:36.442Z,3.92
2023-08-09T12:58:03.769Z,3.75
2023-08-09T13:00:32.312Z,3.72
2023-08-09T13:02:59.456Z,4.32
2023-08-09T13:05:26.609Z,4.18
2023-08-09T13:07:53.764Z,4.25
2023-08-09T13:10:22.013Z,4.38
2023-08-09T13:12:49.304Z,4.03
2023-08-09T13:15:16.454Z,4.13
2023-08-09T13:17:44.480Z,5.60
2023-08-09T13:20:13.482Z,5.00
2023-08-09T13:22:41.880Z,5.00
2023-08-09T13:25:10.562Z,5.28
2023-08-09T13:27:38.598Z,7.05
2023-08-09T13:30:09.044Z,5.55
2023-08-09T13:32:37.386Z,6.10
2023-08-09T13:35:08.598Z,5.95
2023-08-09T13:37:44.577Z,5.70
2023-08-09T13:40:12.393Z,5.68
2023-08-09T13:42:39.646Z,5.90
2023-08-09T13:45:07.610Z,3.38
2023-08-09T13:47:35.808Z,4.13
2023-08-09T13:50:03.202Z,5.35
2023-08-09T13:52:33.109Z,4.50
2023-08-09T13:55:00.330Z,5.30
2023-08-09T13:57:27.509Z,4.43
2023-08-09T13:59:54.866Z,4.45
2023-08-09T14:02:22.423Z,3.75
2023-08-09T14:04:49.652Z,3.20
2023-08-09T14:07:16.852Z,3.80
2023-08-09T14:09:44.321Z,2.70
2023-08-09T14:12:11.779Z,2.90
2023-08-09T14:14:38.960Z,3.20
2023-08-09T14:17:06.235Z,3.40
2023-08-09T14:19:33.448Z,3.20
2023-08-09T14:22:00.838Z,3.65
2023-08-09T14:24:28.147Z,3.17
2023-08-09T14:26:55.334Z,3.17
2023-08-09T14:29:22.520Z,3.22
2023-08-09T14:31:49.631Z,3.40
2023-08-09T14:34:16.836Z,7.65
2023-08-09T14:36:45.288Z,9.35
2023-08-09T14:39:12.605Z,5.38
2023-08-09T14:41:39.712Z,3.45
2023-08-09T14:44:16.087Z,2.33
2023-08-09T14:46:43.296Z,2.65
2023-08-09T14:49:11.637Z,2.45
2023-08-09T14:51:39.797Z,2.53
2023-08-09T14:54:07.284Z,3.45
2023-08-09T14:56:34.436Z,2.95
2023-08-09T14:59:01.599Z,2.70
2023-08-09T15:01:29.384Z,2.60
2023-08-09T15:03:56.667Z,3.20
2023-08-09T15:06:24.044Z,2.70
2023-08-09T15:08:51.446Z,2.58
2023-08-09T15:11:18.554Z,2.97
2023-08-09T15:13:45.691Z,2.65
2023-08-09T15:16:12.837Z,2.60
2023-08-09T15:18:40.015Z,2.60
2023-08-09T15:21:07.189Z,2.42
2023-08-09T15:23:34.469Z,3.40
2023-08-09T15:26:01.601Z,2.70
2023-08-09T15:28:29.211Z,3.22
2023-08-09T15:30:57.894Z,3.13
2023-08-09T15:33:25.226Z,3.90
2023-08-09T15:35:52.481Z,4.35
2023-08-09T15:38:19.630Z,2.38
2023-08-09T15:40:46.798Z,2.13
2023-08-09T15:43:13.934Z,2.47
2023-08-09T15:45:41.069Z,2.42
2023-08-09T15:48:08.764Z,2.00
2023-08-09T15:50:37.725Z,2.30
2023-08-09T15:53:05.332Z,2.25
2023-08-09T15:55:32.525Z,2.60
2023-08-09T15:57:59.806Z,2.67
2023-08-09T16:00:35.878Z,2.80
2023-08-09T16:03:09.563Z,2.47
2023-08-09T16:05:37.671Z,2.38
2023-08-09T16:08:05.108Z,3.30
2023-08-09T16:10:32.345Z,3.35
2023-08-09T16:12:59.608Z,3.22
2023-08-09T16:15:26.837Z,2.45
2023-08-09T16:17:53.963Z,2.63
2023-08-09T16:20:21.123Z,3.53
2023-08-09T16:22:48.245Z,4.00
2023-08-09T16:25:15.410Z,1.80
2023-08-09T16:27:42.646Z,2.90
2023-08-09T16:30:11.077Z,2.60
2023-08-09T16:32:38.357Z,2.78
2023-08-09T16:35:13.667Z,2.58
2023-08-09T16:37:41.152Z,3.47
2023-08-09T16:40:11.376Z,3.58
2023-08-09T16:42:38.524Z,2.30
2023-08-09T16:45:07.695Z,3.10
2023-08-09T16:47:34.871Z,2.70
2023-08-09T16:50:02.414Z,2.95
2023-08-09T16:52:31.709Z,2.55
2023-08-09T16:54:58.950Z,2.17
2023-08-09T16:57:26.379Z,2.72
2023-08-09T16:59:53.616Z,3.00
2023-08-09T17:02:20.741Z,3.10
2023-08-09T17:04:47.897Z,2.90
2023-08-09T17:07:15.020Z,3.53
2023-08-09T17:09:43.117Z,2.38
2023-08-09T17:12:10.311Z,2.60
2023-08-09T17:14:37.512Z,3.80
2023-08-09T17:17:05.152Z,3.88
2023-08-09T17:19:32.540Z,3.17
2023-08-09T17:22:00.012Z,3.03
2023-08-09T17:24:27.180Z,3.88
2023-08-09T17:26:54.369Z,3.75
2023-08-09T17:29:21.468Z,3.55
2023-08-09T17:31:48.658Z,3.83
2023-08-09T17:34:15.774Z,4.10
2023-08-09T17:36:43.076Z,3.25
2023-08-09T17:39:10.261Z,3.45
2023-08-09T17:41:37.483Z,3.65
2023-08-09T17:44:04.912Z,3.08
2023-08-09T17:46:32.081Z,3.10
2023-08-09T17:48:59.265Z,3.20
2023-08-09T17:51:26.474Z,3.90
2023-08-09T17:53:53.572Z,3.08
2023-08-09T17:56:20.891Z,2.17
2023-08-09T17:58:48.017Z,2.55
2023-08-09T18:01:15.208Z,2.30
2023-08-09T18:03:42.428Z,3.00
2023-08-09T18:06:09.746Z,3.38
2023-08-09T18:08:36.918Z,3.13
2023-08-09T18:11:04.091Z,3.03
2023-08-09T18:13:31.244Z,2.42
2023-08-09T18:15:58.392Z,3.00
2023-08-09T18:18:25.632Z,3.53
2023-08-09T18:20:52.798Z,3.00
2023-08-09T18:23:19.932Z,3.33
2023-08-09T18:25:48.382Z,4.18
2023-08-09T18:28:15.546Z,5.60
2023-08-09T18:30:42.763Z,3.83
2023-08-09T18:33:10.040Z,4.18
2023-08-09T18:35:37.260Z,3.60
2023-08-09T18:38:05.161Z,3.63
2023-08-09T18:40:32.408Z,3.45
2023-08-09T18:42:59.610Z,3.88
2023-08-09T18:45:26.922Z,3.80
2023-08-09T18:47:54.199Z,4.30
2023-08-09T18:50:21.600Z,3.83
2023-08-09T18:52:49.018Z,3.92
2023-08-09T18:55:17.470Z,4.40
2023-08-09T18:57:44.660Z,4.90
2023-08-09T19:00:13.418Z,3.97
2023-08-09T19:02:43.940Z,4.82
2023-08-09T19:05:12.384Z,4.13
2023-08-09T19:07:39.515Z,4.65
2023-08-09T19:10:09.490Z,4.95
2023-08-09T19:12:38.278Z,4.88
2023-08-09T19:15:07.230Z,4.95
2023-08-09T19:17:35.325Z,5.20
2023-08-09T19:20:07.757Z,4.57
2023-08-09T19:22:35.093Z,5.05
2023-08-09T19:25:03.119Z,5.63
2023-08-09T19:27:33.066Z,5.15
2023-08-09T19:30:01.130Z,5.03
2023-08-09T19:32:28.459Z,4.45
2023-08-09T19:34:55.583Z,3.85
2023-08-09T19:37:22.746Z,5.35
2023-08-09T19:39:49.874Z,4.88
2023-08-09T19:42:17.222Z,4.25
2023-08-09T19:44:44.341Z,4.80
2023-08-09T19:47:11.478Z,4.60
2023-08-09T19:49:38.682Z,4.60
2023-08-09T19:52:06.697Z,4.43
2023-08-09T19:54:33.867Z,4.43
2023-08-09T19:57:00.994Z,4.82
2023-08-09T19:59:28.655Z,4.05
2023-08-09T20:01:56.280Z,4.18
2023-08-09T20:04:23.939Z,4.72
2023-08-09T20:06:51.044Z,4.20
2023-08-09T20:09:18.232Z,4.55
2023-08-09T20:11:45.439Z,4.88
2023-08-09T20:14:12.577Z,4.72
2023-08-09T20:16:40.202Z,4.70
2023-08-09T20:19:07.331Z,5.65
2023-08-09T20:21:34.466Z,4.40
2023-08-09T20:24:01.609Z,4.93
2023-08-09T20:26:28.731Z,4.97
2023-08-09T20:28:55.859Z,5.38
2023-08-09T20:31:23.043Z,5.15
2023-08-09T20:33:50.224Z,4.95
2023-08-09T20:36:17.426Z,5.20
2023-08-09T20:38:45.883Z,5.07
2023-08-09T20:41:15.379Z,5.38
2023-08-09T20:43:42.635Z,4.50
2023-08-09T20:46:12.729Z,5.05
2023-08-09T20:48:41.969Z,4.97
2023-08-09T20:51:09.079Z,6.68
2023-08-09T20:53:36.201Z,6.28
2023-08-09T20:56:04.172Z,6.40
2023-08-09T20:58:31.321Z,6.68
2023-08-09T21:01:01.493Z,6.28
2023-08-09T21:03:28.634Z,6.55
2023-08-09T21:05:57.007Z,5.68
2023-08-09T21:08:24.189Z,5.78
2023-08-09T21:10:52.621Z,5.07
2023-08-09T21:13:19.875Z,5.35
2023-08-09T21:15:47.042Z,5.03
2023-08-09T21:18:16.191Z,5.60
2023-08-09T21:20:44.132Z,4.43
2023-08-09T21:23:12.141Z,4.88
2023-08-09T21:28:12.087Z,4.65
2023-08-09T21:30:40.228Z,4.43
2023-08-09T21:33:08.777Z,4.45
2023-08-09T21:35:35.973Z,4.70
2023-08-09T21:38:03.135Z,3.90
2023-08-09T21:40:30.294Z,4.50
2023-08-09T21:42:57.391Z,4.60
2023-08-09T21:45:24.511Z,3.50
2023-08-09T21:47:51.699Z,3.70
2023-08-09T21:50:18.902Z,3.25
2023-08-09T21:52:46.013Z,2.72
2023-08-09T21:55:13.373Z,3.63
2023-08-09T21:57:40.571Z,3.92
2023-08-09T22:00:08.925Z,3.70
2023-08-09T22:02:39.245Z,4.15
2023-08-09T22:05:08.220Z,4.35
2023-08-09T22:07:36.806Z,4.25
2023-08-09T22:10:04.334Z,3.80
2023-08-09T22:12:33.852Z,3.50
2023-08-09T22:15:00.986Z,3.65
2023-08-09T22:17:28.149Z,3.30
2023-08-09T22:19:55.363Z,3.92
2023-08-09T22:22:23.554Z,3.60
2023-08-09T22:24:50.650Z,3.63
2023-08-09T22:27:17.821Z,3.72
2023-08-09T22:29:44.932Z,3.85
2023-08-09T22:32:12.087Z,3.60
2023-08-09T22:34:39.216Z,3.53
2023-08-09T22:37:07.439Z,4.68
2023-08-09T22:39:34.617Z,4.32
2023-08-09T22:42:01.993Z,3.88
2023-08-09T22:44:29.486Z,3.50
2023-08-09T22:46:56.745Z,3.80
2023-08-09T22:49:23.868Z,3.30
2023-08-09T22:51:51.092Z,3.63
2023-08-09T22:54:18.266Z,3.33
2023-08-09T22:56:45.435Z,3.25
2023-08-09T22:59:12.590Z,3.35
2023-08-09T23:01:40.145Z,3.28
2023-08-09T23:04:08.186Z,3.42
2023-08-09T23:06:35.307Z,2.67
2023-08-09T23:09:02.479Z,2.95
2023-08-09T23:11:29.607Z,3.20
2023-08-09T23:13:56.745Z,3.70
2023-08-09T23:16:24.370Z,3.38
2023-08-09T23:18:52.951Z,3.20
2023-08-09T23:21:20.160Z,3.33
2023-08-09T23:23:47.298Z,3.85
2023-08-09T23:26:14.411Z,3.55
2023-08-09T23:28:41.550Z,3.38
2023-08-09T23:31:08.693Z,3.95
2023-08-09T23:33:35.895Z,3.33
2023-08-09T23:36:03.748Z,3.70
2023-08-09T23:38:30.954Z,3.13
2023-08-09T23:40:58.152Z,3.50
2023-08-09T23:43:25.282Z,3.50
2023-08-09T23:45:52.430Z,3.47
2023-08-09T23:48:19.599Z,3.42
2023-08-09T23:50:46.709Z,3.42
2023-08-09T23:53:13.882Z,3.20
2023-08-09T23:55:40.993Z,3.70
2023-08-09T23:58:08.192Z,3.83
